sensor_id;sensor_type;location;lat;lon;timestamp;P1;durP1;ratioP1;P2;durP2;ratioP2
10617;SDS011;5356;43.526;26.534;2022-08-19T00:01:23;8.48;;;6.82;;
10617;SDS011;5356;43.526;26.534;2022-08-19T00:03:50;8.68;;;6.85;;
10617;SDS011;5356;43.526;26.534;2022-08-19T00:06:16;9.35;;;6.82;;
10617;SDS011;5356;43.526;26.534;2022-08-19T00:08:41;9.05;;;7.10;;
10617;SDS011;5356;43.526;26.534;2022-08-19T00:11:08;8.95;;;6.25;;
10617;SDS011;5356;43.526;26.534;2022-08-19T00:13:34;11.02;;;7.07;;
10617;SDS011;5356;43.526;26.534;2022-08-19T00:15:59;8.88;;;7.03;;
10617;SDS011;5356;43.526;26.534;2022-08-19T00:18:25;10.38;;;7.03;;
10617;SDS011;5356;43.526;26.534;2022-08-19T00:20:51;11.10;;;6.57;;
10617;SDS011;5356;43.526;26.534;2022-08-19T00:23:16;8.52;;;6.60;;
10617;SDS011;5356;43.526;26.534;2022-08-19T00:25:42;9.48;;;7.35;;
10617;SDS011;5356;43.526;26.534;2022-08-19T00:28:07;9.90;;;7.38;;
10617;SDS011;5356;43.526;26.534;2022-08-19T00:30:33;10.35;;;7.45;;
10617;SDS011;5356;43.526;26.534;2022-08-19T00:32:59;10.45;;;6.93;;
10617;SDS011;5356;43.526;26.534;2022-08-19T00:35:25;11.05;;;7.10;;
10617;SDS011;5356;43.526;26.534;2022-08-19T00:37:52;8.13;;;7.07;;
10617;SDS011;5356;43.526;26.534;2022-08-19T00:40:18;9.43;;;7.15;;
10617;SDS011;5356;43.526;26.534;2022-08-19T00:42:44;9.20;;;7.25;;
10617;SDS011;5356;43.526;26.534;2022-08-19T00:45:12;8.52;;;6.38;;
10617;SDS011;5356;43.526;26.534;2022-08-19T00:47:45;8.82;;;6.45;;
10617;SDS011;5356;43.526;26.534;2022-08-19T00:50:12;7.80;;;6.53;;
10617;SDS011;5356;43.526;26.534;2022-08-19T00:52:41;7.65;;;6.30;;
10617;SDS011;5356;43.526;26.534;2022-08-19T00:55:10;8.60;;;7.10;;
10617;SDS011;5356;43.526;26.534;2022-08-19T00:57:40;8.48;;;6.88;;
10617;SDS011;5356;43.526;26.534;2022-08-19T01:00:10;9.70;;;7.00;;
10617;SDS011;5356;43.526;26.534;2022-08-19T01:02:39;9.70;;;7.35;;
10617;SDS011;5356;43.526;26.534;2022-08-19T01:05:06;7.85;;;6.53;;
10617;SDS011;5356;43.526;26.534;2022-08-19T01:07:35;8.57;;;7.07;;
10617;SDS011;5356;43.526;26.534;2022-08-19T01:10:05;9.02;;;6.90;;
10617;SDS011;5356;43.526;26.534;2022-08-19T01:12:33;8.25;;;6.45;;
10617;SDS011;5356;43.526;26.534;2022-08-19T01:14:59;10.15;;;6.68;;
10617;SDS011;5356;43.526;26.534;2022-08-19T01:17:25;10.43;;;6.80;;
10617;SDS011;5356;43.526;26.534;2022-08-19T01:19:51;7.70;;;6.35;;
10617;SDS011;5356;43.526;26.534;2022-08-19T01:24:48;9.80;;;6.60;;
10617;SDS011;5356;43.526;26.534;2022-08-19T01:27:14;9.25;;;6.82;;
10617;SDS011;5356;43.526;26.534;2022-08-19T01:29:40;13.35;;;7.80;;
10617;SDS011;5356;43.526;26.534;2022-08-19T01:32:07;8.48;;;6.63;;
10617;SDS011;5356;43.526;26.534;2022-08-19T01:34:36;8.25;;;6.65;;
10617;SDS011;5356;43.526;26.534;2022-08-19T01:37:05;9.07;;;7.03;;
10617;SDS011;5356;43.526;26.534;2022-08-19T01:39:36;10.18;;;7.20;;
10617;SDS011;5356;43.526;26.534;2022-08-19T01:42:02;9.88;;;7.13;;
10617;SDS011;5356;43.526;26.534;2022-08-19T01:44:29;9.93;;;7.35;;
10617;SDS011;5356;43.526;26.534;2022-08-19T01:46:55;8.88;;;7.32;;
10617;SDS011;5356;43.526;26.534;2022-08-19T01:49:22;10.23;;;6.93;;
10617;SDS011;5356;43.526;26.534;2022-08-19T01:51:50;10.82;;;7.72;;
10617;SDS011;5356;43.526;26.534;2022-08-19T01:54:17;9.82;;;7.70;;
10617;SDS011;5356;43.526;26.534;2022-08-19T01:56:43;9.15;;;7.32;;
10617;SDS011;5356;43.526;26.534;2022-08-19T01:59:10;10.25;;;8.07;;
10617;SDS011;5356;43.526;26.534;2022-08-19T02:01:39;9.30;;;7.38;;
10617;SDS011;5356;43.526;26.534;2022-08-19T02:04:05;10.15;;;7.57;;
10617;SDS011;5356;43.526;26.534;2022-08-19T02:06:30;10.15;;;7.35;;
10617;SDS011;5356;43.526;26.534;2022-08-19T02:08:58;12.13;;;7.85;;
10617;SDS011;5356;43.526;26.534;2022-08-19T02:11:25;10.07;;;8.05;;
10617;SDS011;5356;43.526;26.534;2022-08-19T02:13:58;9.85;;;6.97;;
10617;SDS011;5356;43.526;26.534;2022-08-19T02:16:28;9.65;;;7.45;;
10617;SDS011;5356;43.526;26.534;2022-08-19T02:18:55;8.10;;;6.50;;
10617;SDS011;5356;43.526;26.534;2022-08-19T02:21:21;9.65;;;6.88;;
10617;SDS011;5356;43.526;26.534;2022-08-19T02:23:48;9.65;;;7.55;;
10617;SDS011;5356;43.526;26.534;2022-08-19T02:26:16;8.85;;;7.55;;
10617;SDS011;5356;43.526;26.534;2022-08-19T02:28:42;8.60;;;7.00;;
10617;SDS011;5356;43.526;26.534;2022-08-19T02:31:09;10.43;;;6.90;;
10617;SDS011;5356;43.526;26.534;2022-08-19T02:33:36;9.18;;;7.43;;
10617;SDS011;5356;43.526;26.534;2022-08-19T02:36:05;7.80;;;7.00;;
10617;SDS011;5356;43.526;26.534;2022-08-19T02:38:31;9.43;;;7.80;;
10617;SDS011;5356;43.526;26.534;2022-08-19T02:41:03;10.48;;;7.38;;
10617;SDS011;5356;43.526;26.534;2022-08-19T02:43:31;13.27;;;7.85;;
10617;SDS011;5356;43.526;26.534;2022-08-19T02:46:01;10.55;;;7.88;;
10617;SDS011;5356;43.526;26.534;2022-08-19T02:48:36;9.93;;;7.28;;
10617;SDS011;5356;43.526;26.534;2022-08-19T02:51:02;10.75;;;8.15;;
10617;SDS011;5356;43.526;26.534;2022-08-19T02:53:27;9.00;;;7.28;;
10617;SDS011;5356;43.526;26.534;2022-08-19T02:55:53;10.93;;;8.10;;
10617;SDS011;5356;43.526;26.534;2022-08-19T02:58:19;11.85;;;7.47;;
10617;SDS011;5356;43.526;26.534;2022-08-19T03:00:48;9.63;;;7.68;;
10617;SDS011;5356;43.526;26.534;2022-08-19T03:03:17;11.00;;;8.07;;
10617;SDS011;5356;43.526;26.534;2022-08-19T03:05:44;12.60;;;7.57;;
10617;SDS011;5356;43.526;26.534;2022-08-19T03:08:10;8.88;;;7.15;;
10617;SDS011;5356;43.526;26.534;2022-08-19T03:10:44;10.05;;;8.05;;
10617;SDS011;5356;43.526;26.534;2022-08-19T03:13:16;9.43;;;7.63;;
10617;SDS011;5356;43.526;26.534;2022-08-19T03:15:44;10.77;;;8.35;;
10617;SDS011;5356;43.526;26.534;2022-08-19T03:18:12;8.88;;;7.28;;
10617;SDS011;5356;43.526;26.534;2022-08-19T03:20:45;8.95;;;7.13;;
10617;SDS011;5356;43.526;26.534;2022-08-19T03:23:13;10.93;;;8.25;;
10617;SDS011;5356;43.526;26.534;2022-08-19T03:25:40;9.90;;;7.90;;
10617;SDS011;5356;43.526;26.534;2022-08-19T03:28:08;10.60;;;7.63;;
10617;SDS011;5356;43.526;26.534;2022-08-19T03:30:38;11.23;;;8.18;;
10617;SDS011;5356;43.526;26.534;2022-08-19T03:33:06;11.85;;;9.00;;
10617;SDS011;5356;43.526;26.534;2022-08-19T03:35:33;12.10;;;8.15;;
10617;SDS011;5356;43.526;26.534;2022-08-19T03:38:01;10.32;;;7.80;;
10617;SDS011;5356;43.526;26.534;2022-08-19T03:40:27;11.18;;;8.15;;
10617;SDS011;5356;43.526;26.534;2022-08-19T03:42:55;11.75;;;7.90;;
10617;SDS011;5356;43.526;26.534;2022-08-19T03:45:21;10.27;;;7.88;;
10617;SDS011;5356;43.526;26.534;2022-08-19T03:47:47;11.45;;;7.55;;
10617;SDS011;5356;43.526;26.534;2022-08-19T03:50:13;11.82;;;8.60;;
10617;SDS011;5356;43.526;26.534;2022-08-19T03:52:38;11.65;;;7.85;;
10617;SDS011;5356;43.526;26.534;2022-08-19T03:55:04;10.20;;;7.28;;
10617;SDS011;5356;43.526;26.534;2022-08-19T03:57:30;10.50;;;8.05;;
10617;SDS011;5356;43.526;26.534;2022-08-19T03:59:57;13.20;;;8.25;;
10617;SDS011;5356;43.526;26.534;2022-08-19T04:02:23;10.00;;;7.90;;
10617;SDS011;5356;43.526;26.534;2022-08-19T04:04:48;9.65;;;8.00;;
10617;SDS011;5356;43.526;26.534;2022-08-19T04:07:14;9.50;;;7.20;;
10617;SDS011;5356;43.526;26.534;2022-08-19T04:09:41;13.48;;;8.40;;
10617;SDS011;5356;43.526;26.534;2022-08-19T04:12:06;9.50;;;7.30;;
10617;SDS011;5356;43.526;26.534;2022-08-19T04:14:32;10.60;;;7.82;;
10617;SDS011;5356;43.526;26.534;2022-08-19T04:16:59;9.82;;;8.10;;
10617;SDS011;5356;43.526;26.534;2022-08-19T04:19:25;11.82;;;8.60;;
10617;SDS011;5356;43.526;26.534;2022-08-19T04:21:54;12.35;;;8.65;;
10617;SDS011;5356;43.526;26.534;2022-08-19T04:24:20;10.77;;;8.57;;
10617;SDS011;5356;43.526;26.534;2022-08-19T04:26:46;12.57;;;8.05;;
10617;SDS011;5356;43.526;26.534;2022-08-19T04:29:13;13.52;;;8.63;;
10617;SDS011;5356;43.526;26.534;2022-08-19T04:31:41;11.93;;;8.57;;
10617;SDS011;5356;43.526;26.534;2022-08-19T04:34:09;10.82;;;8.45;;
10617;SDS011;5356;43.526;26.534;2022-08-19T04:36:36;11.68;;;8.65;;
10617;SDS011;5356;43.526;26.534;2022-08-19T04:39:06;11.93;;;9.18;;
10617;SDS011;5356;43.526;26.534;2022-08-19T04:41:34;11.52;;;9.40;;
10617;SDS011;5356;43.526;26.534;2022-08-19T04:44:18;13.93;;;8.60;;
10617;SDS011;5356;43.526;26.534;2022-08-19T04:46:45;11.65;;;8.93;;
10617;SDS011;5356;43.526;26.534;2022-08-19T04:49:13;11.88;;;9.13;;
10617;SDS011;5356;43.526;26.534;2022-08-19T04:51:40;11.55;;;8.45;;
10617;SDS011;5356;43.526;26.534;2022-08-19T04:54:07;12.00;;;8.75;;
10617;SDS011;5356;43.526;26.534;2022-08-19T04:56:33;11.32;;;8.60;;
10617;SDS011;5356;43.526;26.534;2022-08-19T04:58:59;15.13;;;9.27;;
10617;SDS011;5356;43.526;26.534;2022-08-19T05:01:28;13.48;;;9.38;;
10617;SDS011;5356;43.526;26.534;2022-08-19T05:03:54;12.55;;;8.82;;
10617;SDS011;5356;43.526;26.534;2022-08-19T05:06:21;13.77;;;8.45;;
10617;SDS011;5356;43.526;26.534;2022-08-19T05:08:47;12.07;;;8.40;;
10617;SDS011;5356;43.526;26.534;2022-08-19T05:11:21;12.55;;;8.15;;
10617;SDS011;5356;43.526;26.534;2022-08-19T05:13:50;13.23;;;9.43;;
10617;SDS011;5356;43.526;26.534;2022-08-19T05:16:18;15.68;;;10.27;;
10617;SDS011;5356;43.526;26.534;2022-08-19T05:18:45;13.00;;;9.50;;
10617;SDS011;5356;43.526;26.534;2022-08-19T05:21:30;14.95;;;10.23;;
10617;SDS011;5356;43.526;26.534;2022-08-19T05:24:14;13.10;;;9.88;;
10617;SDS011;5356;43.526;26.534;2022-08-19T05:26:45;13.70;;;9.82;;
10617;SDS011;5356;43.526;26.534;2022-08-19T05:29:12;12.88;;;9.38;;
10617;SDS011;5356;43.526;26.534;2022-08-19T05:31:39;13.90;;;9.27;;
10617;SDS011;5356;43.526;26.534;2022-08-19T05:34:05;13.07;;;10.20;;
10617;SDS011;5356;43.526;26.534;2022-08-19T05:36:33;14.20;;;9.45;;
10617;SDS011;5356;43.526;26.534;2022-08-19T05:39:04;13.70;;;9.55;;
10617;SDS011;5356;43.526;26.534;2022-08-19T05:41:30;24.60;;;12.98;;
10617;SDS011;5356;43.526;26.534;2022-08-19T05:43:56;29.60;;;13.95;;
10617;SDS011;5356;43.526;26.534;2022-08-19T05:46:23;22.17;;;12.13;;
10617;SDS011;5356;43.526;26.534;2022-08-19T05:48:49;13.05;;;9.32;;
10617;SDS011;5356;43.526;26.534;2022-08-19T05:51:15;13.27;;;9.68;;
10617;SDS011;5356;43.526;26.534;2022-08-19T05:53:41;11.95;;;8.95;;
10617;SDS011;5356;43.526;26.534;2022-08-19T05:56:08;12.15;;;9.88;;
10617;SDS011;5356;43.526;26.534;2022-08-19T05:58:36;14.95;;;9.18;;
10617;SDS011;5356;43.526;26.534;2022-08-19T06:01:13;13.85;;;8.63;;
10617;SDS011;5356;43.526;26.534;2022-08-19T06:03:41;10.80;;;7.82;;
10617;SDS011;5356;43.526;26.534;2022-08-19T06:06:07;12.82;;;9.05;;
10617;SDS011;5356;43.526;26.534;2022-08-19T06:08:34;12.13;;;8.90;;
10617;SDS011;5356;43.526;26.534;2022-08-19T06:14:04;9.25;;;7.05;;
10617;SDS011;5356;43.526;26.534;2022-08-19T06:16:34;10.13;;;7.03;;
10617;SDS011;5356;43.526;26.534;2022-08-19T06:19:01;11.73;;;7.25;;
10617;SDS011;5356;43.526;26.534;2022-08-19T06:21:31;14.65;;;7.82;;
10617;SDS011;5356;43.526;26.534;2022-08-19T06:23:57;10.23;;;6.47;;
10617;SDS011;5356;43.526;26.534;2022-08-19T06:26:23;7.72;;;6.72;;
10617;SDS011;5356;43.526;26.534;2022-08-19T06:28:50;10.95;;;7.25;;
10617;SDS011;5356;43.526;26.534;2022-08-19T06:31:16;11.77;;;6.80;;
10617;SDS011;5356;43.526;26.534;2022-08-19T06:33:46;11.82;;;8.13;;
10617;SDS011;5356;43.526;26.534;2022-08-19T06:36:32;9.38;;;6.90;;
10617;SDS011;5356;43.526;26.534;2022-08-19T06:39:00;14.18;;;8.68;;
10617;SDS011;5356;43.526;26.534;2022-08-19T06:41:29;17.45;;;9.23;;
10617;SDS011;5356;43.526;26.534;2022-08-19T06:43:57;10.32;;;6.78;;
10617;SDS011;5356;43.526;26.534;2022-08-19T06:46:23;19.33;;;11.52;;
10617;SDS011;5356;43.526;26.534;2022-08-19T06:48:49;9.07;;;6.10;;
10617;SDS011;5356;43.526;26.534;2022-08-19T06:51:15;16.13;;;12.95;;
10617;SDS011;5356;43.526;26.534;2022-08-19T06:53:44;27.08;;;11.38;;
10617;SDS011;5356;43.526;26.534;2022-08-19T06:56:14;18.83;;;9.95;;
10617;SDS011;5356;43.526;26.534;2022-08-19T06:58:41;12.82;;;7.57;;
10617;SDS011;5356;43.526;26.534;2022-08-19T07:01:06;9.35;;;6.75;;
10617;SDS011;5356;43.526;26.534;2022-08-19T07:03:33;8.07;;;5.95;;
10617;SDS011;5356;43.526;26.534;2022-08-19T07:06:04;7.70;;;6.03;;
10617;SDS011;5356;43.526;26.534;2022-08-19T07:08:36;13.05;;;7.00;;
10617;SDS011;5356;43.526;26.534;2022-08-19T07:11:06;7.07;;;6.30;;
10617;SDS011;5356;43.526;26.534;2022-08-19T07:13:33;8.85;;;6.30;;
10617;SDS011;5356;43.526;26.534;2022-08-19T07:16:05;6.22;;;5.25;;
10617;SDS011;5356;43.526;26.534;2022-08-19T07:18:36;6.93;;;5.80;;
10617;SDS011;5356;43.526;26.534;2022-08-19T07:21:05;10.05;;;6.88;;
10617;SDS011;5356;43.526;26.534;2022-08-19T07:23:33;10.50;;;6.68;;
10617;SDS011;5356;43.526;26.534;2022-08-19T07:26:44;8.80;;;6.07;;
10617;SDS011;5356;43.526;26.534;2022-08-19T07:28:45;11.70;;;7.43;;
10617;SDS011;5356;43.526;26.534;2022-08-19T07:31:13;18.75;;;10.27;;
10617;SDS011;5356;43.526;26.534;2022-08-19T07:33:43;9.73;;;6.88;;
10617;SDS011;5356;43.526;26.534;2022-08-19T07:36:10;13.25;;;6.72;;
10617;SDS011;5356;43.526;26.534;2022-08-19T07:38:39;9.57;;;6.50;;
10617;SDS011;5356;43.526;26.534;2022-08-19T07:41:06;7.03;;;5.93;;
10617;SDS011;5356;43.526;26.534;2022-08-19T07:43:34;7.78;;;5.97;;
10617;SDS011;5356;43.526;26.534;2022-08-19T07:46:00;13.55;;;7.00;;
10617;SDS011;5356;43.526;26.534;2022-08-19T07:48:26;7.50;;;5.78;;
10617;SDS011;5356;43.526;26.534;2022-08-19T07:50:54;12.63;;;6.88;;
10617;SDS011;5356;43.526;26.534;2022-08-19T07:53:22;13.18;;;7.80;;
10617;SDS011;5356;43.526;26.534;2022-08-19T07:55:49;8.57;;;6.38;;
10617;SDS011;5356;43.526;26.534;2022-08-19T07:58:17;7.93;;;5.65;;
10617;SDS011;5356;43.526;26.534;2022-08-19T08:00:46;7.90;;;6.25;;
10617;SDS011;5356;43.526;26.534;2022-08-19T08:03:13;9.40;;;6.40;;
10617;SDS011;5356;43.526;26.534;2022-08-19T08:05:40;7.50;;;5.65;;
10617;SDS011;5356;43.526;26.534;2022-08-19T08:08:25;13.82;;;7.32;;
10617;SDS011;5356;43.526;26.534;2022-08-19T08:11:09;8.13;;;5.93;;
10617;SDS011;5356;43.526;26.534;2022-08-19T08:13:35;9.73;;;6.80;;
10617;SDS011;5356;43.526;26.534;2022-08-19T08:16:01;11.93;;;6.93;;
10617;SDS011;5356;43.526;26.534;2022-08-19T08:18:27;7.97;;;5.55;;
10617;SDS011;5356;43.526;26.534;2022-08-19T08:20:54;6.13;;;5.53;;
10617;SDS011;5356;43.526;26.534;2022-08-19T08:23:20;8.65;;;5.40;;
10617;SDS011;5356;43.526;26.534;2022-08-19T08:25:50;7.80;;;6.13;;
10617;SDS011;5356;43.526;26.534;2022-08-19T08:28:17;9.60;;;6.50;;
10617;SDS011;5356;43.526;26.534;2022-08-19T08:30:44;7.50;;;5.82;;
10617;SDS011;5356;43.526;26.534;2022-08-19T08:33:12;12.50;;;6.45;;
10617;SDS011;5356;43.526;26.534;2022-08-19T08:35:39;34.15;;;14.65;;
10617;SDS011;5356;43.526;26.534;2022-08-19T08:38:10;7.88;;;5.82;;
10617;SDS011;5356;43.526;26.534;2022-08-19T08:40:50;8.43;;;6.10;;
10617;SDS011;5356;43.526;26.534;2022-08-19T08:46:00;14.77;;;7.57;;
10617;SDS011;5356;43.526;26.534;2022-08-19T08:51:26;9.48;;;6.55;;
10617;SDS011;5356;43.526;26.534;2022-08-19T08:53:57;7.85;;;5.65;;
10617;SDS011;5356;43.526;26.534;2022-08-19T08:56:25;7.20;;;5.72;;
10617;SDS011;5356;43.526;26.534;2022-08-19T08:58:58;6.47;;;5.65;;
10617;SDS011;5356;43.526;26.534;2022-08-19T09:01:24;6.18;;;5.57;;
10617;SDS011;5356;43.526;26.534;2022-08-19T09:03:50;12.57;;;8.77;;
10617;SDS011;5356;43.526;26.534;2022-08-19T09:08:49;9.70;;;6.22;;
10617;SDS011;5356;43.526;26.534;2022-08-19T09:11:41;6.38;;;4.97;;
10617;SDS011;5356;43.526;26.534;2022-08-19T09:16:53;6.60;;;5.10;;
10617;SDS011;5356;43.526;26.534;2022-08-19T09:19:18;7.03;;;5.40;;
10617;SDS011;5356;43.526;26.534;2022-08-19T09:21:44;7.93;;;5.30;;
10617;SDS011;5356;43.526;26.534;2022-08-19T09:24:10;5.75;;;4.55;;
10617;SDS011;5356;43.526;26.534;2022-08-19T09:26:35;8.07;;;5.68;;
10617;SDS011;5356;43.526;26.534;2022-08-19T09:29:01;6.45;;;5.20;;
10617;SDS011;5356;43.526;26.534;2022-08-19T09:31:30;6.65;;;5.57;;
10617;SDS011;5356;43.526;26.534;2022-08-19T09:33:57;6.63;;;5.25;;
10617;SDS011;5356;43.526;26.534;2022-08-19T09:36:25;6.70;;;4.90;;
10617;SDS011;5356;43.526;26.534;2022-08-19T09:38:54;9.85;;;5.45;;
10617;SDS011;5356;43.526;26.534;2022-08-19T09:41:21;13.68;;;7.55;;
10617;SDS011;5356;43.526;26.534;2022-08-19T09:43:49;7.78;;;5.72;;
10617;SDS011;5356;43.526;26.534;2022-08-19T09:46:20;8.77;;;6.40;;
10617;SDS011;5356;43.526;26.534;2022-08-19T09:48:47;11.45;;;7.22;;
10617;SDS011;5356;43.526;26.534;2022-08-19T09:51:18;12.63;;;9.15;;
10617;SDS011;5356;43.526;26.534;2022-08-19T09:53:46;7.53;;;6.32;;
10617;SDS011;5356;43.526;26.534;2022-08-19T09:56:15;7.80;;;5.40;;
10617;SDS011;5356;43.526;26.534;2022-08-19T09:58:41;9.05;;;6.38;;
10617;SDS011;5356;43.526;26.534;2022-08-19T10:01:07;9.32;;;6.50;;
10617;SDS011;5356;43.526;26.534;2022-08-19T10:03:33;9.93;;;7.03;;
10617;SDS011;5356;43.526;26.534;2022-08-19T10:06:01;8.57;;;5.85;;
10617;SDS011;5356;43.526;26.534;2022-08-19T10:08:30;6.15;;;4.90;;
10617;SDS011;5356;43.526;26.534;2022-08-19T10:10:57;7.10;;;5.90;;
10617;SDS011;5356;43.526;26.534;2022-08-19T10:13:24;6.18;;;4.93;;
10617;SDS011;5356;43.526;26.534;2022-08-19T10:15:53;8.10;;;5.15;;
10617;SDS011;5356;43.526;26.534;2022-08-19T10:18:21;5.60;;;5.00;;
10617;SDS011;5356;43.526;26.534;2022-08-19T10:20:47;11.18;;;6.55;;
10617;SDS011;5356;43.526;26.534;2022-08-19T10:23:14;14.43;;;9.05;;
10617;SDS011;5356;43.526;26.534;2022-08-19T10:25:40;10.98;;;7.25;;
10617;SDS011;5356;43.526;26.534;2022-08-19T10:28:06;7.97;;;5.85;;
10617;SDS011;5356;43.526;26.534;2022-08-19T10:30:32;9.13;;;5.63;;
10617;SDS011;5356;43.526;26.534;2022-08-19T10:32:58;7.00;;;5.10;;
10617;SDS011;5356;43.526;26.534;2022-08-19T10:35:24;7.03;;;5.53;;
10617;SDS011;5356;43.526;26.534;2022-08-19T10:37:54;10.27;;;6.75;;
10617;SDS011;5356;43.526;26.534;2022-08-19T10:40:24;10.32;;;7.22;;
10617;SDS011;5356;43.526;26.534;2022-08-19T10:42:52;11.57;;;8.00;;
10617;SDS011;5356;43.526;26.534;2022-08-19T10:45:18;8.02;;;5.10;;
10617;SDS011;5356;43.526;26.534;2022-08-19T10:47:43;6.93;;;5.30;;
10617;SDS011;5356;43.526;26.534;2022-08-19T10:50:09;7.97;;;5.50;;
10617;SDS011;5356;43.526;26.534;2022-08-19T10:52:52;8.55;;;6.28;;
10617;SDS011;5356;43.526;26.534;2022-08-19T10:55:19;7.00;;;5.43;;
10617;SDS011;5356;43.526;26.534;2022-08-19T10:58:09;7.85;;;5.43;;
10617;SDS011;5356;43.526;26.534;2022-08-19T11:00:39;9.13;;;5.60;;
10617;SDS011;5356;43.526;26.534;2022-08-19T11:03:07;11.18;;;7.38;;
10617;SDS011;5356;43.526;26.534;2022-08-19T11:05:32;7.93;;;6.00;;
10617;SDS011;5356;43.526;26.534;2022-08-19T11:07:58;13.15;;;6.68;;
10617;SDS011;5356;43.526;26.534;2022-08-19T11:10:23;9.65;;;6.70;;
10617;SDS011;5356;43.526;26.534;2022-08-19T11:12:48;9.85;;;6.38;;
10617;SDS011;5356;43.526;26.534;2022-08-19T11:15:19;13.40;;;6.53;;
10617;SDS011;5356;43.526;26.534;2022-08-19T11:17:45;5.60;;;4.90;;
10617;SDS011;5356;43.526;26.534;2022-08-19T11:20:12;7.40;;;4.72;;
10617;SDS011;5356;43.526;26.534;2022-08-19T11:22:39;4.93;;;4.22;;
10617;SDS011;5356;43.526;26.534;2022-08-19T11:25:05;13.25;;;5.18;;
10617;SDS011;5356;43.526;26.534;2022-08-19T11:27:32;7.78;;;5.30;;
10617;SDS011;5356;43.526;26.534;2022-08-19T11:29:58;7.50;;;4.95;;
10617;SDS011;5356;43.526;26.534;2022-08-19T11:32:25;6.80;;;4.93;;
10617;SDS011;5356;43.526;26.534;2022-08-19T11:34:51;6.93;;;5.00;;
10617;SDS011;5356;43.526;26.534;2022-08-19T11:37:17;6.07;;;5.00;;
10617;SDS011;5356;43.526;26.534;2022-08-19T11:39:42;8.88;;;4.90;;
10617;SDS011;5356;43.526;26.534;2022-08-19T11:42:08;11.77;;;6.05;;
10617;SDS011;5356;43.526;26.534;2022-08-19T11:44:52;8.13;;;6.43;;
10617;SDS011;5356;43.526;26.534;2022-08-19T11:47:18;18.85;;;9.90;;
10617;SDS011;5356;43.526;26.534;2022-08-19T11:49:45;6.40;;;4.90;;
10617;SDS011;5356;43.526;26.534;2022-08-19T11:52:11;9.98;;;5.45;;
10617;SDS011;5356;43.526;26.534;2022-08-19T11:54:36;5.63;;;4.63;;
10617;SDS011;5356;43.526;26.534;2022-08-19T11:57:02;8.88;;;4.88;;
10617;SDS011;5356;43.526;26.534;2022-08-19T11:59:28;9.77;;;5.97;;
10617;SDS011;5356;43.526;26.534;2022-08-19T12:01:54;7.03;;;5.43;;
10617;SDS011;5356;43.526;26.534;2022-08-19T12:04:20;5.38;;;4.70;;
10617;SDS011;5356;43.526;26.534;2022-08-19T12:06:46;14.25;;;7.00;;
10617;SDS011;5356;43.526;26.534;2022-08-19T12:09:11;9.85;;;5.20;;
10617;SDS011;5356;43.526;26.534;2022-08-19T12:11:39;5.55;;;4.43;;
10617;SDS011;5356;43.526;26.534;2022-08-19T12:14:05;7.30;;;4.47;;
10617;SDS011;5356;43.526;26.534;2022-08-19T12:16:34;6.55;;;4.47;;
10617;SDS011;5356;43.526;26.534;2022-08-19T12:18:59;5.53;;;4.65;;
10617;SDS011;5356;43.526;26.534;2022-08-19T12:21:29;6.40;;;4.10;;
10617;SDS011;5356;43.526;26.534;2022-08-19T12:23:56;7.70;;;5.13;;
10617;SDS011;5356;43.526;26.534;2022-08-19T12:26:24;6.40;;;4.30;;
10617;SDS011;5356;43.526;26.534;2022-08-19T12:28:50;10.18;;;5.20;;
10617;SDS011;5356;43.526;26.534;2022-08-19T12:31:16;9.52;;;5.18;;
10617;SDS011;5356;43.526;26.534;2022-08-19T12:33:42;6.35;;;4.40;;
10617;SDS011;5356;43.526;26.534;2022-08-19T12:36:09;5.75;;;4.85;;
10617;SDS011;5356;43.526;26.534;2022-08-19T12:38:36;5.38;;;4.00;;
10617;SDS011;5356;43.526;26.534;2022-08-19T12:41:03;7.82;;;4.95;;
10617;SDS011;5356;43.526;26.534;2022-08-19T12:43:35;5.78;;;4.10;;
10617;SDS011;5356;43.526;26.534;2022-08-19T12:46:03;6.78;;;4.88;;
10617;SDS011;5356;43.526;26.534;2022-08-19T12:48:30;6.20;;;4.53;;
10617;SDS011;5356;43.526;26.534;2022-08-19T12:50:56;4.03;;;3.67;;
10617;SDS011;5356;43.526;26.534;2022-08-19T12:53:21;4.50;;;3.90;;
10617;SDS011;5356;43.526;26.534;2022-08-19T12:55:47;7.07;;;3.85;;
10617;SDS011;5356;43.526;26.534;2022-08-19T12:58:20;6.05;;;3.83;;
10617;SDS011;5356;43.526;26.534;2022-08-19T13:00:46;4.10;;;3.58;;
10617;SDS011;5356;43.526;26.534;2022-08-19T13:03:12;6.30;;;3.47;;
10617;SDS011;5356;43.526;26.534;2022-08-19T13:05:37;5.70;;;3.70;;
10617;SDS011;5356;43.526;26.534;2022-08-19T13:08:03;6.85;;;3.58;;
10617;SDS011;5356;43.526;26.534;2022-08-19T13:10:32;6.32;;;4.13;;
10617;SDS011;5356;43.526;26.534;2022-08-19T13:13:00;8.15;;;4.82;;
10617;SDS011;5356;43.526;26.534;2022-08-19T13:15:27;6.05;;;3.90;;
10617;SDS011;5356;43.526;26.534;2022-08-19T13:17:56;7.00;;;3.83;;
10617;SDS011;5356;43.526;26.534;2022-08-19T13:20:22;7.65;;;4.35;;
10617;SDS011;5356;43.526;26.534;2022-08-19T13:22:48;9.38;;;5.10;;
10617;SDS011;5356;43.526;26.534;2022-08-19T13:25:14;4.38;;;3.47;;
10617;SDS011;5356;43.526;26.534;2022-08-19T13:27:42;5.75;;;3.83;;
10617;SDS011;5356;43.526;26.534;2022-08-19T13:30:09;19.05;;;8.55;;
10617;SDS011;5356;43.526;26.534;2022-08-19T13:32:55;6.18;;;4.22;;
10617;SDS011;5356;43.526;26.534;2022-08-19T13:35:35;5.85;;;4.30;;
10617;SDS011;5356;43.526;26.534;2022-08-19T13:38:05;4.45;;;3.85;;
10617;SDS011;5356;43.526;26.534;2022-08-19T13:40:31;6.00;;;3.80;;
10617;SDS011;5356;43.526;26.534;2022-08-19T13:42:58;6.78;;;3.53;;
10617;SDS011;5356;43.526;26.534;2022-08-19T13:45:25;5.38;;;3.88;;
10617;SDS011;5356;43.526;26.534;2022-08-19T13:47:53;5.22;;;3.70;;
10617;SDS011;5356;43.526;26.534;2022-08-19T13:50:22;6.57;;;4.10;;
10617;SDS011;5356;43.526;26.534;2022-08-19T13:52:54;4.38;;;3.65;;
10617;SDS011;5356;43.526;26.534;2022-08-19T13:55:21;5.10;;;4.20;;
10617;SDS011;5356;43.526;26.534;2022-08-19T13:57:50;14.75;;;6.57;;
10617;SDS011;5356;43.526;26.534;2022-08-19T14:00:17;4.28;;;3.88;;
10617;SDS011;5356;43.526;26.534;2022-08-19T14:02:43;6.43;;;4.05;;
10617;SDS011;5356;43.526;26.534;2022-08-19T14:05:11;7.72;;;4.60;;
10617;SDS011;5356;43.526;26.534;2022-08-19T14:07:38;6.13;;;4.03;;
10617;SDS011;5356;43.526;26.534;2022-08-19T14:10:04;5.88;;;4.10;;
10617;SDS011;5356;43.526;26.534;2022-08-19T14:12:31;6.85;;;3.63;;
10617;SDS011;5356;43.526;26.534;2022-08-19T14:14:57;5.95;;;3.90;;
10617;SDS011;5356;43.526;26.534;2022-08-19T14:17:23;6.00;;;3.35;;
10617;SDS011;5356;43.526;26.534;2022-08-19T14:19:50;4.82;;;3.80;;
10617;SDS011;5356;43.526;26.534;2022-08-19T14:22:21;12.15;;;4.97;;
10617;SDS011;5356;43.526;26.534;2022-08-19T14:24:46;6.35;;;4.10;;
10617;SDS011;5356;43.526;26.534;2022-08-19T14:27:12;6.90;;;5.22;;
10617;SDS011;5356;43.526;26.534;2022-08-19T14:29:38;4.47;;;3.90;;
10617;SDS011;5356;43.526;26.534;2022-08-19T14:32:03;9.50;;;5.28;;
10617;SDS011;5356;43.526;26.534;2022-08-19T14:34:29;5.03;;;4.40;;
10617;SDS011;5356;43.526;26.534;2022-08-19T14:36:56;5.68;;;4.32;;
10617;SDS011;5356;43.526;26.534;2022-08-19T14:39:22;5.43;;;4.25;;
10617;SDS011;5356;43.526;26.534;2022-08-19T14:41:48;3.75;;;3.35;;
10617;SDS011;5356;43.526;26.534;2022-08-19T14:44:13;4.05;;;3.65;;
10617;SDS011;5356;43.526;26.534;2022-08-19T14:46:39;6.22;;;4.15;;
10617;SDS011;5356;43.526;26.534;2022-08-19T14:49:05;7.47;;;4.68;;
10617;SDS011;5356;43.526;26.534;2022-08-19T14:51:32;4.53;;;4.10;;
10617;SDS011;5356;43.526;26.534;2022-08-19T14:53:58;6.18;;;3.42;;
10617;SDS011;5356;43.526;26.534;2022-08-19T14:56:25;5.13;;;3.67;;
10617;SDS011;5356;43.526;26.534;2022-08-19T14:58:53;6.18;;;4.18;;
10617;SDS011;5356;43.526;26.534;2022-08-19T15:01:19;4.75;;;3.95;;
10617;SDS011;5356;43.526;26.534;2022-08-19T15:03:47;8.40;;;4.22;;